Time;durP1;ratioP1;P1;durP2;ratioP2;P2;SDS_P1;SDS_P2;PMS_P1;PMS_P2;Temp;Humidity;BMP_temperature;BMP_pressure;BME280_temperature;BME280_humidity;BME280_pressure;Samples;Min_cycle;Max_cycle;Signal;HPM_P1;HPM_P2
2021/05/23 00:00:25;;;;;;;1.77;1.50;;;10.90;99.90;;;;;;5061959;28;20419;-37
2021/05/23 00:02:57;;;;;;;2.50;1.63;;;10.90;99.90;;;;;;5067371;28;20185;-37
2021/05/23 00:05:25;;;;;;;3.07;2.30;;;10.90;99.90;;;;;;5068586;28;20465;-37
2021/05/23 00:07:59;;;;;;;2.40;1.87;;;10.80;99.90;;;;;;5064563;28;20498;-37
2021/05/23 00:10:26;;;;;;;2.03;1.83;;;10.70;99.90;;;;;;5068008;28;20482;-38
2021/05/23 00:12:58;;;;;;;2.00;1.80;;;10.80;99.90;;;;;;5058891;28;20522;-37
2021/05/23 00:15:36;;;;;;;2.20;1.87;;;10.80;99.90;;;;;;5073797;28;20515;-37
2021/05/23 00:18:02;;;;;;;2.90;1.77;;;10.80;99.90;;;;;;5069464;28;20418;-37
2021/05/23 00:20:28;;;;;;;2.80;1.90;;;10.60;99.90;;;;;;5068855;28;20419;-38
2021/05/23 00:22:54;;;;;;;2.70;2.30;;;10.70;99.90;;;;;;5069260;28;20411;-38
2021/05/23 00:25:22;;;;;;;1.67;1.57;;;10.80;99.90;;;;;;5069395;28;20514;-38
2021/05/23 00:27:48;;;;;;;3.13;2.30;;;10.90;99.90;;;;;;5077117;28;20805;-37
2021/05/23 00:30:15;;;;;;;2.20;1.97;;;10.70;99.90;;;;;;5063759;28;21037;-38
2021/05/23 00:32:41;;;;;;;3.00;2.50;;;10.80;99.90;;;;;;5071396;28;20943;-38
2021/05/23 00:35:08;;;;;;;4.00;2.57;;;11.10;99.90;;;;;;5089504;28;20426;-37
2021/05/23 00:37:34;;;;;;;3.70;2.10;;;10.70;99.90;;;;;;5085618;28;20411;-38
2021/05/23 00:40:00;;;;;;;2.20;2.00;;;10.70;99.90;;;;;;5088809;28;20426;-38
2021/05/23 00:42:26;;;;;;;5.90;2.20;;;10.70;99.90;;;;;;5079334;28;20193;-37
2021/05/23 00:44:52;;;;;;;2.97;2.53;;;10.70;99.90;;;;;;5064076;28;20280;-37
2021/05/23 00:47:18;;;;;;;2.87;2.47;;;10.70;99.90;;;;;;5068941;28;20857;-38
2021/05/23 00:49:44;;;;;;;2.97;2.20;;;10.70;99.90;;;;;;5068148;28;20454;-37
2021/05/23 00:52:09;;;;;;;2.47;2.03;;;10.70;99.90;;;;;;5068942;28;20209;-38
2021/05/23 00:54:35;;;;;;;4.43;2.00;;;10.70;99.90;;;;;;5068500;28;20181;-37
2021/05/23 00:57:02;;;;;;;4.60;2.80;;;10.70;99.90;;;;;;5068257;28;20426;-37
2021/05/23 00:59:28;;;;;;;3.50;2.50;;;10.70;99.90;;;;;;5058945;28;20430;-37
2021/05/23 01:01:54;;;;;;;2.90;2.00;;;10.70;99.90;;;;;;5068582;28;20408;-38
2021/05/23 01:04:19;;;;;;;2.47;2.27;;;10.70;99.90;;;;;;5067903;28;20185;-38
2021/05/23 01:06:45;;;;;;;3.57;2.50;;;10.70;99.90;;;;;;5067807;28;20212;-37
2021/05/23 01:09:11;;;;;;;3.70;2.27;;;10.70;99.90;;;;;;5068448;28;20250;-38
2021/05/23 01:11:39;;;;;;;3.40;2.17;;;10.70;99.90;;;;;;5067866;28;20682;-37
2021/05/23 01:14:41;;;;;;;2.40;2.20;;;10.90;99.90;;;;;;5062272;28;20181;-38
2021/05/23 01:17:09;;;;;;;4.00;2.20;;;10.90;99.90;;;;;;5062748;28;20414;-37
2021/05/23 01:20:16;;;;;;;2.63;2.13;;;10.70;99.90;;;;;;5067982;28;20680;-37
2021/05/23 01:23:01;;;;;;;2.80;2.20;;;10.80;99.90;;;;;;5068148;28;20878;-38
2021/05/23 01:25:29;;;;;;;3.10;1.80;;;10.60;99.90;;;;;;5068200;28;20415;-38
2021/05/23 01:27:56;;;;;;;2.73;2.10;;;10.60;99.90;;;;;;5063529;28;21613;-37
2021/05/23 01:30:31;;;;;;;4.20;2.50;;;10.60;99.90;;;;;;5063589;28;20466;-38
2021/05/23 01:33:03;;;;;;;3.13;1.97;;;10.80;99.90;;;;;;5075595;28;20426;-37
2021/05/23 01:35:38;;;;;;;3.40;2.83;;;10.70;99.90;;;;;;5088430;28;20806;-37
2021/05/23 01:38:09;;;;;;;2.67;2.47;;;10.70;99.90;;;;;;5068292;28;20423;-38
2021/05/23 01:40:36;;;;;;;3.37;2.70;;;10.40;99.90;;;;;;5080719;28;20419;-37
2021/05/23 01:43:03;;;;;;;3.13;2.83;;;10.50;99.90;;;;;;5074231;28;20436;-37
2021/05/23 01:45:30;;;;;;;2.87;2.60;;;10.70;99.90;;;;;;5062194;28;20443;-37
2021/05/23 01:47:57;;;;;;;5.63;2.63;;;10.60;99.90;;;;;;5067566;28;20431;-38
2021/05/23 01:50:23;;;;;;;3.80;2.67;;;10.40;99.90;;;;;;5066992;28;20451;-38
2021/05/23 01:52:57;;;;;;;4.60;3.20;;;10.50;99.90;;;;;;5067670;28;20420;-38
2021/05/23 01:55:24;;;;;;;3.10;2.80;;;10.40;99.90;;;;;;5067758;28;21052;-37
2021/05/23 01:57:50;;;;;;;3.17;2.87;;;10.50;99.90;;;;;;5064190;28;20681;-37
2021/05/23 02:00:24;;;;;;;4.97;3.60;;;10.40;99.90;;;;;;5055977;28;21110;-38
2021/05/23 02:02:49;;;;;;;7.40;3.30;;;10.60;99.90;;;;;;5059043;28;20510;-38
2021/05/23 02:05:16;;;;;;;4.27;3.20;;;10.50;99.90;;;;;;5067385;28;20975;-38
2021/05/23 02:07:41;;;;;;;3.80;3.10;;;10.60;99.90;;;;;;5066886;28;20262;-37
2021/05/23 02:10:13;;;;;;;7.33;3.20;;;10.50;99.90;;;;;;5066665;28;20423;-38
2021/05/23 02:12:41;;;;;;;4.83;3.27;;;10.30;99.90;;;;;;5067295;28;20195;-37
2021/05/23 02:15:08;;;;;;;5.80;3.20;;;10.40;99.90;;;;;;5059107;28;20889;-38
2021/05/23 02:17:41;;;;;;;3.70;3.27;;;10.40;99.90;;;;;;5067314;28;20416;-38
2021/05/23 02:20:10;;;;;;;4.30;3.43;;;10.50;99.90;;;;;;5065996;28;20927;-38
2021/05/23 02:22:41;;;;;;;4.10;3.13;;;10.40;99.90;;;;;;5067083;28;20411;-37
2021/05/23 02:25:09;;;;;;;3.10;2.80;;;10.50;99.90;;;;;;5066933;28;20485;-37
2021/05/23 02:27:37;;;;;;;4.77;3.30;;;10.60;99.90;;;;;;5066760;28;20835;-38
2021/05/23 02:30:09;;;;;;;3.77;3.10;;;10.50;99.90;;;;;;5057027;28;20433;-37
2021/05/23 02:32:35;;;;;;;6.53;3.27;;;10.50;99.90;;;;;;5065003;28;20455;-38
2021/05/23 02:35:02;;;;;;;5.37;4.00;;;10.50;99.90;;;;;;5066668;28;20459;-38
2021/05/23 02:37:27;;;;;;;3.53;3.23;;;10.50;99.90;;;;;;5066885;28;20205;-37
2021/05/23 02:39:53;;;;;;;4.40;2.73;;;10.60;99.90;;;;;;5066142;28;20934;-38
2021/05/23 02:42:19;;;;;;;4.23;3.60;;;10.50;99.90;;;;;;5066825;28;20185;-38
2021/05/23 02:44:44;;;;;;;3.57;3.27;;;10.60;99.90;;;;;;5056778;28;20727;-37
2021/05/23 02:47:10;;;;;;;3.40;3.10;;;10.60;99.90;;;;;;5066242;28;20236;-37
2021/05/23 02:49:41;;;;;;;4.20;3.20;;;10.50;99.90;;;;;;5065615;28;20215;-38
2021/05/23 02:52:08;;;;;;;4.80;3.40;;;10.60;99.90;;;;;;5066737;28;20353;-37
2021/05/23 02:54:34;;;;;;;3.93;3.53;;;10.50;99.90;;;;;;5066913;28;20427;-38
2021/05/23 02:57:00;;;;;;;3.30;2.73;;;10.50;99.90;;;;;;5066134;28;20426;-38
2021/05/23 02:59:25;;;;;;;4.37;3.47;;;10.60;99.90;;;;;;5057727;28;20196;-38
2021/05/23 03:01:51;;;;;;;3.90;3.60;;;10.50;99.90;;;;;;5067198;28;20700;-38
2021/05/23 03:04:17;;;;;;;4.07;3.67;;;10.50;99.90;;;;;;5078493;28;20569;-38
2021/05/23 03:06:42;;;;;;;5.17;3.90;;;10.40;99.90;;;;;;5085475;28;20212;-38
2021/05/23 03:09:08;;;;;;;3.83;3.47;;;10.50;99.90;;;;;;5074110;28;20199;-37
2021/05/23 03:11:34;;;;;;;3.93;3.53;;;10.40;99.90;;;;;;5101770;28;20223;-38
2021/05/23 03:13:59;;;;;;;4.43;4.00;;;10.50;99.90;;;;;;5076317;28;20188;-37
2021/05/23 03:16:25;;;;;;;4.93;4.43;;;10.50;99.90;;;;;;5071994;28;20239;-37
2021/05/23 03:18:51;;;;;;;4.47;4.07;;;10.60;99.90;;;;;;5073925;28;20189;-37
2021/05/23 03:21:17;;;;;;;5.03;4.53;;;10.50;99.90;;;;;;5086023;28;20192;-37
2021/05/23 03:23:42;;;;;;;5.37;4.83;;;10.50;99.90;;;;;;5079296;28;20253;-38
2021/05/23 03:26:08;;;;;;;5.57;4.97;;;10.50;99.90;;;;;;5086359;28;20425;-38
2021/05/23 03:28:34;;;;;;;4.80;4.40;;;10.60;99.90;;;;;;5066335;28;20404;-38
2021/05/23 03:31:00;;;;;;;5.63;5.03;;;10.50;99.90;;;;;;5066179;28;20300;-38
2021/05/23 03:33:25;;;;;;;6.80;5.23;;;10.50;99.90;;;;;;5077951;28;20189;-38
2021/05/23 03:35:51;;;;;;;7.00;6.30;;;10.40;99.90;;;;;;5071504;28;20556;-38
2021/05/23 03:38:17;;;;;;;12.03;6.60;;;10.40;99.90;;;;;;5080116;28;20195;-37
2021/05/23 03:40:42;;;;;;;6.20;5.70;;;10.40;99.90;;;;;;5082669;28;20677;-37
2021/05/23 03:43:09;;;;;;;7.20;6.47;;;10.40;99.90;;;;;;5072642;28;20669;-37
2021/05/23 03:45:35;;;;;;;6.93;6.33;;;10.40;99.90;;;;;;5061306;28;20201;-38
2021/05/23 03:48:02;;;;;;;7.60;6.83;;;10.40;99.90;;;;;;5072326;28;20451;-38
2021/05/23 03:50:27;;;;;;;8.13;7.33;;;10.40;99.90;;;;;;5087468;28;20984;-37
2021/05/23 03:52:55;;;;;;;8.33;7.60;;;10.40;99.90;;;;;;5085782;28;20418;-38
2021/05/23 03:55:23;;;;;;;10.60;8.80;;;10.40;99.90;;;;;;5088155;28;20687;-37
2021/05/23 03:57:50;;;;;;;10.50;9.40;;;10.40;99.90;;;;;;5092841;28;20497;-37
2021/05/23 04:00:17;;;;;;;9.47;8.47;;;10.20;99.90;;;;;;5067994;28;20928;-38
2021/05/23 04:02:54;;;;;;;10.00;9.00;;;10.40;99.90;;;;;;5072482;28;20457;-38
2021/05/23 04:05:22;;;;;;;10.10;8.83;;;10.50;99.90;;;;;;5069697;28;20434;-37
2021/05/23 04:07:48;;;;;;;9.80;8.90;;;10.40;99.90;;;;;;5072242;28;20446;-37
2021/05/23 04:10:17;;;;;;;12.40;9.33;;;10.70;99.90;;;;;;5071526;28;21004;-38
2021/05/23 04:12:45;;;;;;;11.80;10.10;;;10.50;99.90;;;;;;5072385;28;20188;-38
2021/05/23 04:15:13;;;;;;;11.30;10.10;;;10.70;99.90;;;;;;5063823;28;20853;-37
2021/05/23 04:17:39;;;;;;;10.97;9.87;;;10.60;99.90;;;;;;5069612;28;20434;-37
2021/05/23 04:20:10;;;;;;;11.47;10.27;;;10.60;99.90;;;;;;5071647;28;20795;-37
2021/05/23 04:22:36;;;;;;;11.80;10.60;;;10.50;99.90;;;;;;5081850;28;20273;-38
2021/05/23 04:25:06;;;;;;;11.67;10.53;;;10.50;99.90;;;;;;5071690;28;20881;-38
2021/05/23 04:27:32;;;;;;;11.10;10.00;;;10.50;99.90;;;;;;5072088;28;20431;-38
2021/05/23 04:29:58;;;;;;;10.53;9.50;;;10.40;99.90;;;;;;5063566;28;20644;-37
2021/05/23 04:32:24;;;;;;;12.83;11.20;;;10.50;99.90;;;;;;5070605;28;20990;-38
2021/05/23 04:34:49;;;;;;;13.20;11.90;;;10.40;99.90;;;;;;5084099;28;20432;-38
2021/05/23 04:37:16;;;;;;;11.27;10.07;;;10.40;99.90;;;;;;5092319;28;20207;-38
2021/05/23 04:39:43;;;;;;;12.87;10.73;;;10.60;99.90;;;;;;5076721;28;20290;-37
2021/05/23 04:42:09;;;;;;;12.17;9.70;;;10.50;99.90;;;;;;5089098;28;20453;-37
2021/05/23 04:44:34;;;;;;;10.60;9.50;;;10.50;99.90;;;;;;5069849;28;20440;-38
2021/05/23 04:47:00;;;;;;;9.73;8.73;;;10.60;99.90;;;;;;5071528;28;20972;-37
2021/05/23 04:49:26;;;;;;;11.00;9.70;;;10.50;99.90;;;;;;5076329;28;20288;-38
2021/05/23 04:51:52;;;;;;;10.30;9.20;;;10.60;99.90;;;;;;5068618;28;20216;-37
2021/05/23 04:54:18;;;;;;;9.97;8.90;;;10.60;99.90;;;;;;5068545;28;20610;-37
2021/05/23 04:56:43;;;;;;;9.97;8.97;;;10.60;99.90;;;;;;5068634;28;20428;-37
2021/05/23 04:59:09;;;;;;;10.03;9.03;;;10.70;99.90;;;;;;5066973;28;20377;-38
2021/05/23 05:01:35;;;;;;;10.97;9.83;;;10.70;99.90;;;;;;5060557;28;20193;-38
2021/05/23 05:04:01;;;;;;;11.27;9.70;;;10.80;99.90;;;;;;5068633;28;20197;-38
2021/05/23 05:06:27;;;;;;;10.90;9.47;;;10.70;99.90;;;;;;5068342;28;20400;-38
2021/05/23 05:08:52;;;;;;;14.00;10.47;;;10.70;99.90;;;;;;5067409;28;20431;-38
2021/05/23 05:11:18;;;;;;;11.03;9.90;;;10.60;99.90;;;;;;5068400;28;20470;-38
2021/05/23 05:13:44;;;;;;;14.10;12.03;;;10.70;99.90;;;;;;5068115;28;20189;-38
2021/05/23 05:16:11;;;;;;;15.37;11.50;;;10.50;99.90;;;;;;5059605;28;20197;-38
2021/05/23 05:18:36;;;;;;;15.43;11.50;;;10.70;99.90;;;;;;5072654;28;20185;-38
2021/05/23 05:21:03;;;;;;;14.13;12.10;;;10.70;99.90;;;;;;5081008;28;20912;-38
2021/05/23 05:23:29;;;;;;;13.23;11.93;;;10.60;99.90;;;;;;5087345;28;20271;-38
2021/05/23 05:25:54;;;;;;;16.43;12.40;;;10.70;99.90;;;;;;5088633;28;20563;-38
2021/05/23 05:28:20;;;;;;;12.27;11.07;;;10.70;99.90;;;;;;5088074;28;20203;-38
2021/05/23 05:30:46;;;;;;;12.37;10.50;;;10.80;99.90;;;;;;5065286;28;20236;-38
2021/05/23 05:33:11;;;;;;;14.03;11.87;;;10.80;99.90;;;;;;5072498;28;20180;-38
2021/05/23 05:35:37;;;;;;;13.20;10.07;;;10.80;99.90;;;;;;5082241;28;20227;-38
2021/05/23 05:38:03;;;;;;;12.17;10.57;;;10.90;99.90;;;;;;5085160;28;20660;-38
2021/05/23 05:40:28;;;;;;;10.67;9.33;;;10.80;99.90;;;;;;5080122;28;20257;-38
2021/05/23 05:42:54;;;;;;;12.50;9.80;;;10.80;99.90;;;;;;5086661;28;20541;-39
2021/05/23 05:45:20;;;;;;;11.80;9.90;;;10.90;99.90;;;;;;5069898;28;20193;-38
2021/05/23 05:47:45;;;;;;;11.47;9.90;;;10.80;99.90;;;;;;5063456;28;20196;-38
2021/05/23 05:50:12;;;;;;;10.40;9.30;;;10.90;99.90;;;;;;5066995;28;20207;-38
2021/05/23 05:52:38;;;;;;;14.63;9.60;;;10.80;99.90;;;;;;5067185;28;20319;-38
2021/05/23 05:55:05;;;;;;;11.17;8.77;;;10.90;99.90;;;;;;5067375;28;20517;-37
2021/05/23 05:57:30;;;;;;;11.33;8.63;;;11.00;99.90;;;;;;5066306;28;20996;-38
2021/05/23 05:59:56;;;;;;;9.23;7.30;;;10.90;99.90;;;;;;5062771;28;20432;-38
2021/05/23 06:02:22;;;;;;;9.07;7.50;;;10.90;99.90;;;;;;5057674;28;20411;-38
2021/05/23 06:04:49;;;;;;;9.50;6.97;;;10.90;99.90;;;;;;5067256;28;20192;-38
2021/05/23 06:07:14;;;;;;;7.60;6.77;;;10.80;99.90;;;;;;5053735;28;20205;-38
2021/05/23 06:09:40;;;;;;;8.50;6.60;;;10.80;99.90;;;;;;5066743;28;20416;-38
2021/05/23 06:12:06;;;;;;;7.90;6.90;;;11.00;99.90;;;;;;5066845;28;20209;-38
2021/05/23 06:14:32;;;;;;;8.57;7.37;;;10.90;99.90;;;;;;5067604;28;20189;-38
2021/05/23 06:16:57;;;;;;;10.27;7.50;;;10.80;99.90;;;;;;5054712;28;20492;-38
2021/05/23 06:19:23;;;;;;;9.53;7.50;;;10.90;99.90;;;;;;5066058;28;20189;-38
2021/05/23 06:21:49;;;;;;;12.53;8.33;;;10.80;99.90;;;;;;5069806;28;20185;-38
2021/05/23 06:24:14;;;;;;;10.10;8.10;;;11.00;99.90;;;;;;5067326;28;20197;-38
2021/05/23 06:26:40;;;;;;;9.90;8.90;;;10.70;99.90;;;;;;5101888;28;20212;-38
2021/05/23 06:29:06;;;;;;;8.67;7.77;;;10.80;99.90;;;;;;5086736;28;20180;-38
2021/05/23 06:31:32;;;;;;;10.13;7.13;;;10.90;99.90;;;;;;5065975;28;20236;-38
2021/05/23 06:33:57;;;;;;;8.57;7.00;;;10.70;99.90;;;;;;5065174;28;20184;-38
2021/05/23 06:36:23;;;;;;;9.33;6.23;;;10.70;99.90;;;;;;5067621;28;20411;-38
2021/05/23 06:38:49;;;;;;;7.67;5.17;;;10.60;99.90;;;;;;5065062;28;20323;-38
2021/05/23 06:41:16;;;;;;;9.00;4.90;;;10.70;99.90;;;;;;5068395;28;20552;-38
2021/05/23 06:43:42;;;;;;;8.83;5.27;;;10.60;99.90;;;;;;5070462;28;20463;-38
2021/05/23 06:46:08;;;;;;;7.30;4.70;;;10.60;99.90;;;;;;5062350;28;20510;-38
2021/05/23 06:48:33;;;;;;;4.73;4.17;;;10.60;99.90;;;;;;5066023;28;20511;-38
2021/05/23 06:51:00;;;;;;;7.67;4.90;;;10.60;99.90;;;;;;5067210;28;20220;-38
2021/05/23 06:53:25;;;;;;;4.63;4.13;;;10.80;99.90;;;;;;5065426;28;20191;-38
2021/05/23 06:55:51;;;;;;;6.60;4.50;;;10.80;99.90;;;;;;5067267;28;20420;-38
2021/05/23 06:58:17;;;;;;;6.40;4.10;;;10.60;99.90;;;;;;5066007;28;20208;-38
2021/05/23 07:00:42;;;;;;;7.43;4.50;;;10.80;99.90;;;;;;5063867;28;20195;-38
2021/05/23 07:03:08;;;;;;;6.53;4.40;;;10.80;99.90;;;;;;5065611;28;20196;-38
2021/05/23 07:05:34;;;;;;;5.20;3.90;;;11.00;99.90;;;;;;5065933;28;20185;-38
2021/05/23 07:07:59;;;;;;;4.93;4.13;;;10.80;99.90;;;;;;5066581;28;20196;-38
2021/05/23 07:10:25;;;;;;;5.20;4.70;;;11.00;99.90;;;;;;5064732;28;20181;-38
2021/05/23 07:12:51;;;;;;;4.97;4.27;;;10.90;99.90;;;;;;5064646;28;20216;-38
2021/05/23 07:15:17;;;;;;;8.33;4.83;;;11.00;99.90;;;;;;5066401;28;20415;-38
2021/05/23 07:17:43;;;;;;;7.70;4.60;;;10.80;99.90;;;;;;5060400;28;20282;-38
2021/05/23 07:20:10;;;;;;;6.07;4.33;;;10.80;99.90;;;;;;5064197;28;20185;-38
2021/05/23 07:22:36;;;;;;;9.00;4.60;;;10.80;99.90;;;;;;5065513;28;20188;-38
2021/05/23 07:25:02;;;;;;;8.40;4.60;;;10.60;99.90;;;;;;5064883;28;20431;-38
2021/05/23 07:27:28;;;;;;;8.10;5.00;;;10.50;99.90;;;;;;5065684;28;20192;-38
2021/05/23 07:29:53;;;;;;;9.80;5.10;;;10.60;99.90;;;;;;5064516;28;20497;-38
2021/05/23 07:32:19;;;;;;;7.80;4.57;;;10.70;99.90;;;;;;5057142;28;20231;-38
2021/05/23 07:34:45;;;;;;;5.40;4.40;;;10.80;99.90;;;;;;5064188;28;20260;-38
2021/05/23 07:37:10;;;;;;;5.93;4.20;;;10.80;99.90;;;;;;5065569;28;20280;-38
2021/05/23 07:39:36;;;;;;;4.57;3.80;;;11.10;99.90;;;;;;5065296;28;20192;-38
2021/05/23 07:42:02;;;;;;;7.80;3.50;;;11.00;99.90;;;;;;5067569;28;20283;-38
2021/05/23 07:44:27;;;;;;;8.50;4.00;;;11.10;99.90;;;;;;5075162;28;20416;-38
2021/05/23 07:46:53;;;;;;;4.60;4.00;;;11.20;99.90;;;;;;5051574;28;20564;-38
2021/05/23 07:49:19;;;;;;;7.60;3.90;;;11.10;99.90;;;;;;5063017;28;20193;-38
2021/05/23 07:51:45;;;;;;;7.20;4.07;;;11.30;99.90;;;;;;5064490;28;20255;-38
2021/05/23 07:54:11;;;;;;;5.77;3.80;;;11.50;99.90;;;;;;5080985;28;20557;-38
2021/05/23 07:56:37;;;;;;;4.90;4.33;;;11.60;99.90;;;;;;5076906;28;20418;-38
2021/05/23 07:59:03;;;;;;;5.33;3.90;;;11.40;99.90;;;;;;5084537;28;20422;-38
2021/05/23 08:01:29;;;;;;;6.60;3.97;;;11.60;99.90;;;;;;5069318;28;20193;-38
2021/05/23 08:03:55;;;;;;;5.43;3.83;;;11.80;99.90;;;;;;5061020;28;20969;-38
2021/05/23 08:06:21;;;;;;;3.83;3.40;;;11.90;99.90;;;;;;5075361;28;20449;-38
2021/05/23 08:08:46;;;;;;;7.03;4.20;;;11.90;99.90;;;;;;5065314;28;20197;-38
2021/05/23 08:11:12;;;;;;;4.63;3.30;;;11.90;99.90;;;;;;5064024;28;20205;-38
2021/05/23 08:13:38;;;;;;;6.30;3.40;;;11.90;99.90;;;;;;5064548;28;20181;-38
2021/05/23 08:16:06;;;;;;;6.57;3.37;;;11.90;99.90;;;;;;5067024;28;20189;-38
2021/05/23 08:18:31;;;;;;;5.47;2.90;;;11.90;99.90;;;;;;5066785;28;20447;-38
2021/05/23 08:20:59;;;;;;;4.30;3.07;;;12.00;99.90;;;;;;5061817;28;20875;-38
2021/05/23 08:23:26;;;;;;;4.90;3.00;;;12.10;99.90;;;;;;5066762;28;20216;-38
2021/05/23 08:25:54;;;;;;;3.43;2.50;;;12.20;99.90;;;;;;5069052;28;20576;-38
2021/05/23 08:28:20;;;;;;;7.13;2.43;;;12.30;99.90;;;;;;5068984;28;20431;-38
2021/05/23 08:30:46;;;;;;;3.97;2.80;;;12.40;99.90;;;;;;5066047;28;20582;-38
2021/05/23 08:33:12;;;;;;;4.03;2.40;;;12.50;99.90;;;;;;5064414;28;20518;-38
2021/05/23 08:35:39;;;;;;;3.60;2.10;;;12.60;99.90;;;;;;5063256;28;20217;-38
2021/05/23 08:38:06;;;;;;;4.83;2.17;;;12.70;99.90;;;;;;5069681;28;20189;-38
2021/05/23 08:40:33;;;;;;;4.37;2.00;;;12.80;99.90;;;;;;5066645;28;20427;-38
2021/05/23 08:42:58;;;;;;;4.77;1.73;;;12.80;99.90;;;;;;5064660;28;20420;-38
2021/05/23 08:45:24;;;;;;;7.60;1.80;;;12.80;99.90;;;;;;5067717;28;20461;-38
2021/05/23 08:47:51;;;;;;;4.13;1.70;;;12.90;99.90;;;;;;5067200;28;20966;-38
2021/05/23 08:50:19;;;;;;;5.67;1.40;;;13.00;99.90;;;;;;5057677;28;20205;-38
2021/05/23 08:52:52;;;;;;;3.50;2.27;;;13.10;99.90;;;;;;5067219;28;20629;-38
2021/05/23 08:55:18;;;;;;;5.27;1.40;;;13.30;99.90;;;;;;5067901;28;20422;-38
2021/05/23 08:57:43;;;;;;;7.40;2.37;;;13.30;99.90;;;;;;5067314;28;20419;-38
2021/05/23 09:00:10;;;;;;;3.00;2.43;;;13.40;99.90;;;;;;5081777;28;20185;-38
2021/05/23 09:02:36;;;;;;;2.90;1.40;;;13.50;99.90;;;;;;5086856;28;20211;-38
2021/05/23 09:05:02;;;;;;;2.90;1.40;;;13.60;99.90;;;;;;5062303;28;20783;-38
2021/05/23 09:07:28;;;;;;;3.27;1.40;;;13.60;99.90;;;;;;5068098;28;20209;-38
2021/05/23 09:09:54;;;;;;;1.90;1.57;;;13.60;99.90;;;;;;5071435;28;20445;-38
2021/05/23 09:12:20;;;;;;;4.17;2.13;;;13.50;99.90;;;;;;5067854;28;20224;-38
2021/05/23 09:14:49;;;;;;;3.93;1.73;;;13.50;99.90;;;;;;5067986;28;20613;-38
2021/05/23 09:17:32;;;;;;;7.00;1.93;;;13.30;99.90;;;;;;5080370;28;20422;-38
2021/05/23 09:19:58;;;;;;;5.23;1.63;;;13.40;99.90;;;;;;5064300;28;20741;-39
2021/05/23 09:22:26;;;;;;;3.17;1.20;;;13.50;99.90;;;;;;5066975;28;20471;-38
2021/05/23 09:25:03;;;;;;;3.20;1.63;;;13.50;99.90;;;;;;5071161;28;20188;-38
2021/05/23 09:27:31;;;;;;;2.43;1.63;;;13.50;99.90;;;;;;5067489;28;20844;-38
2021/05/23 09:30:21;;;;;;;6.10;3.20;;;13.60;99.90;;;;;;5074225;28;20526;-38
2021/05/23 09:32:49;;;;;;;2.40;1.37;;;13.80;99.90;;;;;;5068203;28;20763;-38
2021/05/23 09:35:15;;;;;;;17.83;3.27;;;14.00;99.90;;;;;;5059381;28;20420;-38
2021/05/23 09:37:42;;;;;;;2.67;1.40;;;14.00;99.90;;;;;;5065874;28;20407;-38
2021/05/23 09:40:16;;;;;;;7.20;2.10;;;14.00;99.90;;;;;;5068723;28;20253;-39
2021/05/23 09:42:50;;;;;;;3.47;1.50;;;13.90;99.90;;;;;;5072488;28;20425;-38
2021/05/23 09:45:17;;;;;;;2.90;1.30;;;13.90;99.90;;;;;;5079280;28;20415;-39
2021/05/23 09:47:59;;;;;;;5.20;1.80;;;13.70;99.90;;;;;;5086947;28;20503;-38
2021/05/23 09:50:54;;;;;;;1.90;1.23;;;13.50;99.90;;;;;;5075961;28;20427;-38
2021/05/23 09:53:29;;;;;;;5.27;1.27;;;13.40;99.90;;;;;;5060949;28;20416;-38
2021/05/23 09:56:05;;;;;;;4.20;1.83;;;13.50;99.90;;;;;;5065995;28;20422;-38
2021/05/23 09:58:41;;;;;;;5.03;1.30;;;13.70;99.90;;;;;;5066349;28;20507;-38
2021/05/23 10:01:23;;;;;;;2.50;1.33;;;13.70;99.90;;;;;;5066776;28;20472;-39
2021/05/23 10:03:49;;;;;;;8.10;3.30;;;13.60;99.90;;;;;;5066308;28;20416;-38
2021/05/23 10:06:29;;;;;;;3.20;1.00;;;13.40;99.90;;;;;;5056231;28;20444;-39
2021/05/23 10:08:56;;;;;;;5.70;1.67;;;13.40;99.90;;;;;;5063900;28;20438;-38
2021/05/23 10:11:22;;;;;;;7.27;1.70;;;13.30;99.90;;;;;;5066451;28;20934;-38
2021/05/23 10:13:48;;;;;;;3.87;1.40;;;13.20;99.90;;;;;;5066185;28;20411;-38
2021/05/23 10:16:15;;;;;;;2.83;1.40;;;13.40;99.90;;;;;;5070827;28;20424;-38
2021/05/23 10:18:41;;;;;;;4.03;2.57;;;13.70;99.90;;;;;;5071240;28;20420;-38
2021/05/23 10:21:07;;;;;;;3.10;1.50;;;14.00;99.90;;;;;;5065875;28;20778;-38
2021/05/23 10:23:36;;;;;;;1.73;1.17;;;14.20;99.90;;;;;;5064406;28;20424;-38
2021/05/23 10:26:06;;;;;;;3.63;1.37;;;14.30;99.90;;;;;;5062239;28;20744;-38
2021/05/23 10:28:38;;;;;;;4.27;1.83;;;14.40;99.70;;;;;;5066030;28;20771;-38
2021/05/23 10:31:04;;;;;;;5.43;2.03;;;14.50;98.20;;;;;;5066167;28;20459;-38
2021/05/23 10:33:29;;;;;;;3.30;1.60;;;14.70;97.40;;;;;;5064813;28;20431;-39
2021/05/23 10:35:55;;;;;;;2.57;1.37;;;14.80;98.20;;;;;;5059476;28;20213;-39
2021/05/23 10:38:23;;;;;;;1.93;1.20;;;14.90;97.00;;;;;;5064314;28;20189;-39
2021/05/23 10:40:56;;;;;;;1.73;1.20;;;15.00;97.50;;;;;;5066280;28;20688;-38
2021/05/23 10:43:27;;;;;;;2.83;1.27;;;15.00;96.90;;;;;;5067927;28;20430;-38
2021/05/23 10:46:03;;;;;;;2.37;1.17;;;15.20;96.80;;;;;;5076346;28;20423;-38
2021/05/23 10:48:29;;;;;;;2.23;1.10;;;15.20;96.00;;;;;;5068090;28;20428;-38
2021/05/23 10:50:55;;;;;;;2.57;0.97;;;15.20;96.90;;;;;;5042019;28;20472;-38
2021/05/23 10:53:31;;;;;;;2.73;1.20;;;15.20;96.10;;;;;;5063319;28;20197;-39
2021/05/23 10:55:57;;;;;;;4.30;1.70;;;15.10;95.90;;;;;;5062066;28;20226;-39
2021/05/23 10:58:24;;;;;;;3.80;1.30;;;15.00;96.20;;;;;;5078318;28;20966;-38
2021/05/23 11:00:55;;;;;;;2.80;1.20;;;15.00;96.00;;;;;;5067701;28;20188;-38
2021/05/23 11:03:23;;;;;;;1.97;1.23;;;14.80;95.80;;;;;;5067199;28;20446;-38
2021/05/23 11:06:02;;;;;;;3.33;2.17;;;14.70;95.40;;;;;;5061033;28;20428;-38
2021/05/23 11:08:32;;;;;;;2.27;1.07;;;14.50;95.60;;;;;;5063683;28;20470;-38
2021/05/23 11:10:59;;;;;;;3.00;1.20;;;14.30;95.50;;;;;;5066510;28;20458;-38
2021/05/23 11:13:30;;;;;;;6.30;1.60;;;14.30;96.20;;;;;;5066865;28;20564;-38
2021/05/23 11:16:14;;;;;;;3.00;1.30;;;14.30;96.20;;;;;;5078320;28;20415;-38
2021/05/23 11:18:40;;;;;;;1.80;1.10;;;14.40;96.90;;;;;;5080534;28;20433;-38
2021/05/23 11:21:08;;;;;;;1.67;1.20;;;14.50;96.90;;;;;;5062640;28;20435;-38
2021/05/23 11:23:47;;;;;;;6.73;1.70;;;14.60;95.70;;;;;;5069076;28;20207;-38
2021/05/23 11:26:17;;;;;;;8.00;1.60;;;14.80;97.10;;;;;;5064471;28;20985;-38
2021/05/23 11:29:03;;;;;;;2.83;1.30;;;15.00;97.00;;;;;;5062365;28;20434;-38
2021/05/23 11:31:34;;;;;;;1.63;1.07;;;15.10;96.60;;;;;;5070256;28;20996;-38
2021/05/23 11:34:02;;;;;;;3.57;1.40;;;15.20;97.00;;;;;;5064531;28;20453;-39
2021/05/23 11:36:39;;;;;;;3.37;1.70;;;15.20;95.00;;;;;;5063177;28;20436;-38
2021/05/23 11:39:11;;;;;;;2.53;1.20;;;15.20;95.40;;;;;;5065195;28;20421;-38
2021/05/23 11:41:41;;;;;;;1.93;1.40;;;15.20;95.30;;;;;;5070567;28;20462;-38
2021/05/23 11:44:09;;;;;;;2.90;1.50;;;15.20;95.90;;;;;;5064805;28;20943;-38
2021/05/23 11:46:37;;;;;;;2.80;1.20;;;15.40;95.50;;;;;;5066844;28;20493;-38
2021/05/23 11:49:03;;;;;;;3.77;1.30;;;15.50;93.20;;;;;;5067286;28;20418;-38
2021/05/23 11:51:31;;;;;;;4.70;1.53;;;15.50;92.70;;;;;;5048659;28;20490;-38
2021/05/23 11:54:04;;;;;;;2.60;2.00;;;15.60;92.60;;;;;;5067240;28;20254;-38
2021/05/23 11:56:32;;;;;;;2.67;1.23;;;15.70;91.90;;;;;;5069600;28;20419;-38
2021/05/23 11:59:03;;;;;;;2.00;0.97;;;15.70;92.30;;;;;;5069307;28;20416;-38
2021/05/23 12:01:35;;;;;;;4.37;1.20;;;15.70;92.50;;;;;;5069953;28;20427;-38
2021/05/23 12:04:12;;;;;;;6.10;1.20;;;15.50;91.50;;;;;;5071160;28;20422;-38
2021/05/23 12:06:43;;;;;;;3.13;1.37;;;15.40;91.50;;;;;;5060650;28;20436;-38
2021/05/23 12:09:10;;;;;;;3.13;1.50;;;15.20;91.70;;;;;;5071521;28;20524;-38
2021/05/23 12:11:37;;;;;;;2.30;1.57;;;15.10;91.30;;;;;;5072085;28;20455;-38
2021/05/23 12:14:04;;;;;;;5.40;2.10;;;15.10;90.70;;;;;;5069466;28;20797;-38
2021/05/23 12:16:30;;;;;;;2.97;1.23;;;15.10;91.20;;;;;;5076874;28;20509;-38
2021/05/23 12:18:57;;;;;;;2.90;1.10;;;15.20;91.70;;;;;;5070480;28;20498;-38
2021/05/23 12:21:26;;;;;;;3.47;1.00;;;15.40;90.80;;;;;;5064901;28;20521;-38
2021/05/23 12:23:56;;;;;;;1.20;0.83;;;15.60;89.30;;;;;;5069967;28;21129;-38
2021/05/23 12:26:24;;;;;;;2.70;1.10;;;15.60;89.50;;;;;;5077428;28;20425;-38
2021/05/23 12:28:52;;;;;;;2.00;1.00;;;15.40;87.60;;;;;;5089026;28;20437;-38
2021/05/23 12:31:21;;;;;;;4.57;1.47;;;15.30;89.20;;;;;;5067808;28;20569;-38
2021/05/23 12:33:53;;;;;;;5.27;1.30;;;15.20;90.30;;;;;;5080785;28;20422;-38
2021/05/23 12:36:21;;;;;;;2.20;1.30;;;15.20;91.00;;;;;;5076482;28;20551;-38
2021/05/23 12:39:07;;;;;;;1.90;1.30;;;15.30;91.30;;;;;;5063164;28;20431;-38
2021/05/23 12:41:37;;;;;;;3.23;1.30;;;15.40;88.60;;;;;;5067998;28;20998;-38
2021/05/23 12:44:15;;;;;;;3.03;1.20;;;15.60;87.30;;;;;;5068328;28;20419;-38
2021/05/23 12:46:40;;;;;;;4.73;1.40;;;15.70;88.80;;;;;;5067481;28;20438;-38
2021/05/23 12:49:17;;;;;;;3.17;1.30;;;15.90;88.90;;;;;;5068692;28;20469;-38